Time;durP1;ratioP1;P1;durP2;ratioP2;P2;SDS_P1;SDS_P2;PMS_P1;PMS_P2;Temp;Humidity;BMP_temperature;BMP_pressure;BME280_temperature;BME280_humidity;BME280_pressure;Samples;Min_cycle;Max_cycle;Signal;HPM_P1;HPM_P2
2022/01/02 00:01:24;;;;;;;;;;;;;;;9.61;70.56;95999.94;5116812;28;1901;-46
2022/01/02 00:03:52;;;;;;;;;;;;;;;9.54;71.22;96002.28;5116357;28;1018;-45
2022/01/02 00:06:25;;;;;;;;;;;;;;;9.47;71.36;96003.81;5116938;28;1046;-46
2022/01/02 00:09:03;;;;;;;;;;;;;;;9.52;71.32;96012.25;5116609;28;1003;-46
2022/01/02 00:11:29;;;;;;;;;;;;;;;9.52;71.37;96009.56;5116483;28;1141;-46
2022/01/02 00:14:00;;;;;;;;;;;;;;;9.50;71.23;96006.19;5116277;28;1314;-46
2022/01/02 00:16:27;;;;;;;;;;;;;;;9.47;71.56;96011.81;5116818;28;1040;-46
2022/01/02 00:19:06;;;;;;;;;;;;;;;9.31;72.42;96013.13;5116136;28;1055;-45
2022/01/02 00:21:34;;;;;;;;;;;;;;;9.38;72.17;96024.97;5116639;28;1906;-46
2022/01/02 00:24:05;;;;;;;;;;;;;;;9.30;72.95;96031.97;5116396;28;1039;-46
2022/01/02 00:26:41;;;;;;;;;;;;;;;9.30;72.62;96031.97;5116459;27;981;-46
2022/01/02 00:29:08;;;;;;;;;;;;;;;9.40;72.09;96032.00;5116124;28;972;-45
2022/01/02 00:31:35;;;;;;;;;;;;;;;9.34;72.38;96038.72;5116047;28;1040;-46
2022/01/02 00:34:02;;;;;;;;;;;;;;;9.31;72.51;96039.81;5116119;28;985;-46
2022/01/02 00:36:28;;;;;;;;;;;;;;;9.28;72.62;96048.09;5116317;28;1063;-46
2022/01/02 00:38:54;;;;;;;;;;;;;;;9.29;72.48;96041.75;5116100;28;1066;-46
2022/01/02 00:41:26;;;;;;;;;;;;;;;9.17;73.29;96040.16;5116059;28;1048;-46
2022/01/02 00:44:01;;;;;;;;;;;;;;;9.19;72.82;96039.03;5115827;28;1002;-46
2022/01/02 00:46:30;;;;;;;;;;;;;;;9.26;72.54;96042.03;5116230;28;1044;-46
2022/01/02 00:49:01;;;;;;;;;;;;;;;9.14;73.40;96043.06;5115190;27;1023;-46
2022/01/02 00:51:34;;;;;;;;;;;;;;;9.10;73.55;96037.16;5115924;28;1043;-46
2022/01/02 00:54:01;;;;;;;;;;;;;;;8.84;74.52;96033.16;5115698;27;1051;-46
2022/01/02 00:56:31;;;;;;;;;;;;;;;8.85;74.26;96034.88;5116005;28;1054;-46
2022/01/02 00:58:58;;;;;;;;;;;;;;;8.99;73.70;96023.88;5115804;28;1229;-46
2022/01/02 01:01:28;;;;;;;;;;;;;;;9.07;73.44;96028.56;5115454;28;1934;-46
2022/01/02 01:03:55;;;;;;;;;;;;;;;9.00;73.74;96028.25;5115396;28;1020;-46
2022/01/02 01:06:29;;;;;;;;;;;;;;;8.89;74.30;96028.31;5115439;28;1020;-46
2022/01/02 01:08:56;;;;;;;;;;;;;;;8.87;73.86;96035.59;5115546;28;1011;-45
2022/01/02 01:11:28;;;;;;;;;;;;;;;8.90;73.76;96030.00;5115154;28;1216;-46
2022/01/02 01:13:55;;;;;;;;;;;;;;;8.96;73.62;96029.50;5115131;28;1235;-46
2022/01/02 01:16:21;;;;;;;;;;;;;;;9.00;73.70;96025.59;5115261;28;999;-46
2022/01/02 01:18:48;;;;;;;;;;;;;;;8.80;74.76;96029.91;5115427;28;1040;-46
2022/01/02 01:21:15;;;;;;;;;;;;;;;8.73;74.85;96039.44;5115044;28;1092;-46
2022/01/02 01:23:41;;;;;;;;;;;;;;;8.46;75.37;96032.75;5115363;27;1911;-45
2022/01/02 01:26:10;;;;;;;;;;;;;;;8.48;75.24;96036.13;5115347;28;1042;-46
2022/01/02 01:28:37;;;;;;;;;;;;;;;8.59;75.07;96040.56;5115318;28;1059;-45
2022/01/02 01:31:03;;;;;;;;;;;;;;;8.73;74.40;96034.94;5114780;28;1040;-46
2022/01/02 01:33:30;;;;;;;;;;;;;;;8.80;74.34;96032.59;5114979;28;1058;-46
2022/01/02 01:35:57;;;;;;;;;;;;;;;8.82;74.43;96036.00;5114963;28;959;-46
2022/01/02 01:38:24;;;;;;;;;;;;;;;8.94;73.91;96031.44;5115058;28;1035;-46
2022/01/02 01:40:55;;;;;;;;;;;;;;;8.87;74.35;96035.59;5114748;28;971;-46
2022/01/02 01:43:31;;;;;;;;;;;;;;;8.83;74.23;96034.16;5114751;28;1970;-46
2022/01/02 01:45:57;;;;;;;;;;;;;;;8.77;74.79;96040.84;5114870;28;949;-46
2022/01/02 01:48:23;;;;;;;;;;;;;;;8.83;74.37;96036.84;5114523;28;1271;-45
2022/01/02 01:50:49;;;;;;;;;;;;;;;8.81;74.35;96034.28;5114690;28;1141;-45
2022/01/02 01:53:15;;;;;;;;;;;;;;;8.91;73.95;96029.84;5114448;28;1033;-45
2022/01/02 01:55:41;;;;;;;;;;;;;;;8.94;73.83;96036.78;5114572;28;984;-46
2022/01/02 01:58:07;;;;;;;;;;;;;;;9.00;73.50;96036.25;5114633;28;1022;-46
2022/01/02 02:00:34;;;;;;;;;;;;;;;9.09;73.32;96029.31;5114390;28;979;-45
2022/01/02 02:03:00;;;;;;;;;;;;;;;8.92;73.86;96036.91;5114450;28;1914;-45
2022/01/02 02:05:26;;;;;;;;;;;;;;;8.98;73.75;96035.53;5114467;28;1040;-45
2022/01/02 02:07:53;;;;;;;;;;;;;;;9.03;73.47;96029.81;5114217;28;1016;-46
2022/01/02 02:10:26;;;;;;;;;;;;;;;9.06;73.34;96041.06;5114098;28;2014;-46
2022/01/02 02:12:53;;;;;;;;;;;;;;;9.05;73.57;96036.72;5114294;28;1204;-45
2022/01/02 02:15:19;;;;;;;;;;;;;;;8.96;73.67;96034.81;5113944;28;1076;-46
2022/01/02 02:17:46;;;;;;;;;;;;;;;9.02;73.57;96036.13;5114305;28;976;-46
2022/01/02 02:20:18;;;;;;;;;;;;;;;9.02;73.46;96028.13;5112896;28;1327;-45
2022/01/02 02:22:47;;;;;;;;;;;;;;;9.04;73.39;96027.00;5114148;28;1992;-46
2022/01/02 02:25:14;;;;;;;;;;;;;;;8.94;73.58;96020.78;5114301;28;1056;-45
2022/01/02 02:27:46;;;;;;;;;;;;;;;8.88;73.93;96013.28;5113912;28;1064;-45
2022/01/02 02:30:12;;;;;;;;;;;;;;;8.92;73.35;96017.41;5114365;28;1019;-45
2022/01/02 02:32:38;;;;;;;;;;;;;;;8.87;74.28;96022.25;5113809;28;1047;-45
2022/01/02 02:35:05;;;;;;;;;;;;;;;8.81;74.61;96026.28;5114081;28;1031;-46
2022/01/02 02:37:31;;;;;;;;;;;;;;;8.93;73.78;96019.06;5113987;28;1035;-46
2022/01/02 02:39:57;;;;;;;;;;;;;;;9.01;73.53;96016.63;5114128;28;969;-46
2022/01/02 02:42:34;;;;;;;;;;;;;;;9.11;72.98;96022.00;5113651;28;1988;-45
2022/01/02 02:48:59;;;;;;;;;;;;;;;9.18;73.12;96029.38;5113835;28;1278;-45
2022/01/02 02:50:44;;;;;;;;;;;;;;;9.02;73.53;96036.13;5113769;28;1071;-45
2022/01/02 02:53:10;;;;;;;;;;;;;;;9.02;73.45;96028.13;5113734;28;980;-45
2022/01/02 02:55:43;;;;;;;;;;;;;;;9.14;72.87;96033.28;5114057;28;1079;-45
2022/01/02 02:58:38;;;;;;;;;;;;;;;9.30;72.04;96031.97;5113596;28;1126;-45
2022/01/02 03:00:55;;;;;;;;;;;;;;;8.96;73.76;96030.31;5113648;28;1740;-45
2022/01/02 03:03:22;;;;;;;;;;;;;;;8.83;74.22;96036.84;5113652;28;1914;-45
2022/01/02 03:05:48;;;;;;;;;;;;;;;8.73;74.49;96037.59;5113587;28;1851;-46
2022/01/02 03:08:14;;;;;;;;;;;;;;;8.70;74.75;96043.19;5113720;28;996;-45
2022/01/02 03:10:41;;;;;;;;;;;;;;;8.65;75.44;96036.53;5113557;28;968;-46
2022/01/02 03:13:07;;;;;;;;;;;;;;;8.72;74.78;96038.56;5115329;28;1219;-46
2022/01/02 03:15:33;;;;;;;;;;;;;;;8.68;75.50;96041.63;5117530;28;1899;-45
2022/01/02 03:17:58;;;;;;;;;;;;;;;8.74;74.83;96039.28;5117384;28;1022;-46
2022/01/02 03:20:24;;;;;;;;;;;;;;;8.82;74.47;96037.78;5117564;28;1078;-45
2022/01/02 03:22:50;;;;;;;;;;;;;;;8.90;74.38;96024.69;5117453;28;1987;-45
2022/01/02 03:25:17;;;;;;;;;;;;;;;8.93;74.22;96035.06;5117437;28;972;-45
2022/01/02 03:27:44;;;;;;;;;;;;;;;8.92;74.27;96039.56;5117795;28;988;-46
2022/01/02 03:30:11;;;;;;;;;;;;;;;8.81;74.70;96041.44;5117573;27;977;-46
2022/01/02 03:32:37;;;;;;;;;;;;;;;8.92;73.94;96026.22;5117245;28;932;-46
2022/01/02 03:35:04;;;;;;;;;;;;;;;9.13;72.61;96031.56;5117285;28;1016;-45
2022/01/02 03:37:33;;;;;;;;;;;;;;;9.31;71.88;96041.63;5117047;28;1011;-45
2022/01/02 03:40:00;;;;;;;;;;;;;;;9.43;71.32;96043.28;5117135;27;1079;-45
2022/01/02 03:42:26;;;;;;;;;;;;;;;9.46;71.28;96032.31;5116847;27;1992;-46
2022/01/02 03:44:52;;;;;;;;;;;;;;;9.51;71.07;96035.44;5117367;28;976;-46
2022/01/02 03:47:18;;;;;;;;;;;;;;;9.54;70.80;96035.19;5117097;28;1103;-46
2022/01/02 03:49:44;;;;;;;;;;;;;;;9.31;72.13;96033.63;5117413;28;1040;-46
2022/01/02 03:52:10;;;;;;;;;;;;;;;9.06;72.96;96029.56;5116696;28;1836;-45
2022/01/02 03:54:36;;;;;;;;;;;;;;;9.12;73.00;96029.03;5117131;28;988;-46
2022/01/02 03:57:02;;;;;;;;;;;;;;;9.16;72.79;96030.44;5116823;28;983;-45
2022/01/02 03:59:28;;;;;;;;;;;;;;;9.23;72.44;96033.47;5116823;28;1031;-45
2022/01/02 04:01:54;;;;;;;;;;;;;;;9.28;72.16;96031.25;5116892;28;1918;-46
2022/01/02 04:04:20;;;;;;;;;;;;;;;9.24;72.43;96028.00;5116773;28;1002;-46
2022/01/02 04:06:46;;;;;;;;;;;;;;;9.22;72.28;96026.41;5116830;28;1060;-46
2022/01/02 04:09:12;;;;;;;;;;;;;;;9.22;72.37;96029.09;5116783;28;1060;-46
2022/01/02 04:11:38;;;;;;;;;;;;;;;9.23;72.19;96023.63;5116493;28;1216;-46
2022/01/02 04:14:04;;;;;;;;;;;;;;;9.22;72.22;96029.09;5116353;28;1096;-46
2022/01/02 04:16:30;;;;;;;;;;;;;;;9.19;72.55;96036.38;5116678;28;997;-46
2022/01/02 04:18:56;;;;;;;;;;;;;;;9.17;72.73;96037.50;5116321;28;1207;-46
2022/01/02 04:21:22;;;;;;;;;;;;;;;9.03;73.22;96043.13;5116419;28;1859;-45
2022/01/02 04:23:48;;;;;;;;;;;;;;;8.94;73.54;96050.94;5115491;28;1906;-46
2022/01/02 04:26:14;;;;;;;;;;;;;;;8.86;74.05;96049.88;5115611;28;1023;-45
2022/01/02 04:28:40;;;;;;;;;;;;;;;8.95;73.18;96046.44;5116321;28;995;-46
2022/01/02 04:31:06;;;;;;;;;;;;;;;8.90;74.01;96044.19;5116214;28;969;-45
2022/01/02 04:33:32;;;;;;;;;;;;;;;8.78;74.37;96053.19;5115970;28;1032;-46
2022/01/02 04:35:58;;;;;;;;;;;;;;;8.81;74.46;96046.78;5116059;28;1051;-46
2022/01/02 04:38:24;;;;;;;;;;;;;;;8.75;74.63;96048.16;5115889;28;1071;-46
2022/01/02 04:40:50;;;;;;;;;;;;;;;8.72;74.51;96057.22;5116204;28;1051;-46
2022/01/02 04:43:16;;;;;;;;;;;;;;;8.84;74.58;96063.38;5115931;28;1906;-46
2022/01/02 04:45:42;;;;;;;;;;;;;;;8.93;73.92;96064.41;5116141;28;1060;-46
2022/01/02 04:48:08;;;;;;;;;;;;;;;8.95;73.57;96058.00;5115986;28;983;-46
2022/01/02 04:50:34;;;;;;;;;;;;;;;9.01;73.43;96050.44;5115885;28;1048;-45
2022/01/02 04:53:00;;;;;;;;;;;;;;;8.90;74.15;96051.34;5115733;28;1051;-45
2022/01/02 04:55:26;;;;;;;;;;;;;;;8.74;75.01;96051.75;5115720;28;1052;-46
2022/01/02 04:57:52;;;;;;;;;;;;;;;8.78;74.49;96054.06;5115622;28;1051;-45
2022/01/02 05:00:18;;;;;;;;;;;;;;;8.79;74.38;96053.06;5115738;28;976;-46
2022/01/02 05:02:44;;;;;;;;;;;;;;;8.76;74.39;96055.16;5115584;28;1898;-46
2022/01/02 05:05:10;;;;;;;;;;;;;;;8.79;74.58;96049.56;5115590;28;1079;-46
2022/01/02 05:07:36;;;;;;;;;;;;;;;8.71;74.48;96052.88;5115346;28;1012;-45
2022/01/02 05:10:03;;;;;;;;;;;;;;;8.66;74.77;96046.25;5115302;28;1878;-46
2022/01/02 05:12:29;;;;;;;;;;;;;;;8.64;74.79;96046.34;5115537;28;1157;-46
2022/01/02 05:14:57;;;;;;;;;;;;;;;8.58;75.35;96044.22;5114996;28;1092;-45
2022/01/02 05:17:23;;;;;;;;;;;;;;;8.54;75.46;96046.28;5115268;28;992;-45
2022/01/02 05:19:49;;;;;;;;;;;;;;;8.58;75.95;96046.88;5115309;28;976;-46
2022/01/02 05:22:15;;;;;;;;;;;;;;;8.50;76.03;96049.31;5115092;28;1979;-46
2022/01/02 05:24:41;;;;;;;;;;;;;;;8.36;76.47;96043.25;5115254;28;1043;-46
2022/01/02 05:27:07;;;;;;;;;;;;;;;8.48;75.92;96053.91;5115033;28;1095;-46
2022/01/02 05:29:33;;;;;;;;;;;;;;;8.41;76.38;96058.88;5115184;28;1044;-45
2022/01/02 05:31:59;;;;;;;;;;;;;;;8.42;76.58;96051.75;5114975;28;963;-48
2022/01/02 05:34:25;;;;;;;;;;;;;;;8.55;75.78;96061.28;5114896;28;995;-46
2022/01/02 05:36:51;;;;;;;;;;;;;;;8.66;75.02;96057.75;5114765;28;980;-46
2022/01/02 05:39:18;;;;;;;;;;;;;;;8.76;74.54;96055.16;5114741;28;1040;-46
2022/01/02 05:41:44;;;;;;;;;;;;;;;8.79;74.19;96053.06;5114662;28;1910;-46
2022/01/02 05:44:10;;;;;;;;;;;;;;;8.86;74.07;96055.22;5114917;28;968;-46
2022/01/02 05:46:37;;;;;;;;;;;;;;;8.87;73.96;96047.09;5114960;28;987;-46
2022/01/02 05:49:03;;;;;;;;;;;;;;;8.91;73.55;96047.69;5114484;28;1035;-46
2022/01/02 05:51:29;;;;;;;;;;;;;;;8.76;74.50;96057.81;5114556;28;1024;-46
2022/01/02 05:53:55;;;;;;;;;;;;;;;8.49;75.53;96055.63;5114582;28;1011;-45
2022/01/02 05:56:21;;;;;;;;;;;;;;;8.51;75.19;96051.84;5114858;28;991;-46
2022/01/02 05:58:47;;;;;;;;;;;;;;;8.62;74.81;96039.47;5114208;28;1071;-46
2022/01/02 06:01:13;;;;;;;;;;;;;;;8.70;74.51;96051.19;5114431;28;1859;-46
2022/01/02 06:03:39;;;;;;;;;;;;;;;8.68;74.70;96047.78;5114304;28;1909;-45
2022/01/02 06:06:05;;;;;;;;;;;;;;;8.62;75.16;96050.97;5114178;28;1043;-46
2022/01/02 06:08:31;;;;;;;;;;;;;;;8.60;75.23;96060.91;5114596;28;1032;-45
2022/01/02 06:10:57;;;;;;;;;;;;;;;8.57;75.19;96064.69;5114416;28;976;-45
2022/01/02 06:13:23;;;;;;;;;;;;;;;8.74;74.51;96062.44;5114563;28;1237;-46
2022/01/02 06:15:49;;;;;;;;;;;;;;;8.72;74.73;96065.22;5113805;28;1323;-46
2022/01/02 06:18:15;;;;;;;;;;;;;;;8.69;74.74;96072.63;5114120;28;1032;-46
2022/01/02 06:20:42;;;;;;;;;;;;;;;8.74;74.82;96073.09;5114212;28;1128;-45
2022/01/02 06:23:08;;;;;;;;;;;;;;;8.73;74.60;96079.44;5114238;28;1918;-45
2022/01/02 06:25:34;;;;;;;;;;;;;;;8.89;73.92;96086.97;5114126;28;1059;-45
2022/01/02 06:28:00;;;;;;;;;;;;;;;8.87;74.30;96081.78;5114303;28;1002;-45
2022/01/02 06:30:26;;;;;;;;;;;;;;;8.85;74.05;96083.72;5113865;28;1028;-45
2022/01/02 06:32:55;;;;;;;;;;;;;;;8.89;73.39;96085.16;5114028;28;1009;-46
2022/01/02 06:35:22;;;;;;;;;;;;;;;8.88;73.60;96093.28;5114009;28;1003;-46
2022/01/02 06:37:48;;;;;;;;;;;;;;;9.08;73.77;96100.47;5114123;28;1028;-46
2022/01/02 06:40:15;;;;;;;;;;;;;;;9.42;72.99;96089.63;5113684;28;1019;-46
2022/01/02 06:42:41;;;;;;;;;;;;;;;11.44;65.92;96085.91;5113941;28;1913;-45
2022/01/02 06:45:07;;;;;;;;;;;;;;;14.77;55.95;96093.88;5113686;28;1015;-46
2022/01/02 06:47:33;;;;;;;;;;;;;;;17.32;48.50;96102.34;5113133;28;1132;-47
2022/01/02 06:49:59;;;;;;;;;;;;;;;19.09;44.69;96102.72;5113545;28;1019;-47
2022/01/02 06:52:25;;;;;;;;;;;;;;;20.56;41.69;96106.69;5114066;28;1071;-46
2022/01/02 06:54:54;;;;;;;;;;;;;;;22.12;37.67;96113.22;5113844;28;1015;-47
2022/01/02 06:57:21;;;;;;;;;;;;;;;23.85;34.45;96120.84;5114040;28;996;-46
2022/01/02 06:59:48;;;;;;;;;;;;;;;24.01;33.95;96132.28;5113694;28;1052;-48
2022/01/02 07:02:14;;;;;;;;;;;;;;;21.32;37.74;96135.69;5113592;28;1934;-46
2022/01/02 07:04:40;;;;;;;;;;;;;;;21.03;38.28;96134.97;5113591;28;1036;-46
2022/01/02 07:07:06;;;;;;;;;;;;;;;23.55;33.62;96128.78;5113879;28;1019;-46
2022/01/02 07:09:32;;;;;;;;;;;;;;;24.68;31.62;96138.88;5113799;28;1019;-46
2022/01/02 07:11:59;;;;;;;;;;;;;;;23.19;33.49;96131.06;5113639;28;1200;-45
2022/01/02 07:14:27;;;;;;;;;;;;;;;20.91;37.93;96125.72;5113309;28;1322;-45
2022/01/02 07:16:53;;;;;;;;;;;;;;;18.13;43.09;96128.88;5113295;28;1024;-45
2022/01/02 07:19:19;;;;;;;;;;;;;;;14.91;51.09;96119.34;5113414;28;1040;-44
2022/01/02 07:21:45;;;;;;;;;;;;;;;14.04;54.39;96129.34;5113470;28;1917;-45
2022/01/02 07:24:11;;;;;;;;;;;;;;;13.78;55.21;96127.50;5113451;28;1108;-46
2022/01/02 07:26:37;;;;;;;;;;;;;;;13.35;55.90;96129.16;5113621;28;1063;-47
2022/01/02 07:29:03;;;;;;;;;;;;;;;12.75;58.29;96124.34;5113333;28;1830;-46
2022/01/02 07:31:29;;;;;;;;;;;;;;;12.40;59.69;96128.63;5113241;28;1055;-46
2022/01/02 07:33:55;;;;;;;;;;;;;;;12.48;59.69;96125.19;5113568;28;1139;-47
2022/01/02 07:36:21;;;;;;;;;;;;;;;12.94;58.01;96127.88;5113161;28;1031;-46
2022/01/02 07:38:47;;;;;;;;;;;;;;;13.30;57.05;96126.09;5113546;28;1038;-47
2022/01/02 07:41:14;;;;;;;;;;;;;;;13.32;57.21;96126.81;5113135;28;1036;-47
2022/01/02 07:43:40;;;;;;;;;;;;;;;13.21;58.21;96124.31;5113104;28;1981;-46
2022/01/02 07:46:06;;;;;;;;;;;;;;;13.22;58.00;96132.22;5113053;28;1036;-46
2022/01/02 07:48:32;;;;;;;;;;;;;;;13.20;57.88;96125.28;5113495;28;1063;-46
2022/01/02 07:50:58;;;;;;;;;;;;;;;13.10;58.61;96136.13;5113215;28;1048;-46
2022/01/02 07:53:24;;;;;;;;;;;;;;;12.90;58.71;96132.75;5113570;28;1062;-46
2022/01/02 07:55:50;;;;;;;;;;;;;;;13.10;58.60;96138.81;5113106;28;999;-47
2022/01/02 07:58:16;;;;;;;;;;;;;;;13.33;57.57;96133.84;5113415;28;1019;-45
2022/01/02 08:00:42;;;;;;;;;;;;;;;13.62;57.38;96144.34;5116965;28;1039;-47
2022/01/02 08:03:08;;;;;;;;;;;;;;;13.52;58.08;96134.69;5116741;28;1905;-46
2022/01/02 08:05:34;;;;;;;;;;;;;;;13.28;58.47;96142.34;5116950;28;1077;-47
2022/01/02 08:08:01;;;;;;;;;;;;;;;13.18;58.27;96135.34;5116519;28;1020;-47
2022/01/02 08:10:27;;;;;;;;;;;;;;;13.16;58.54;96130.13;5116851;28;1059;-46
2022/01/02 08:12:54;;;;;;;;;;;;;;;12.99;58.51;96126.44;5116598;28;1105;-46
2022/01/02 08:15:20;;;;;;;;;;;;;;;12.72;59.83;96137.22;5116484;28;1143;-46
2022/01/02 08:17:46;;;;;;;;;;;;;;;12.87;59.99;96144.59;5116773;27;992;-46
2022/01/02 08:20:13;;;;;;;;;;;;;;;13.01;58.67;96143.25;5116435;28;1035;-46
2022/01/02 08:22:39;;;;;;;;;;;;;;;13.11;58.62;96143.19;5116406;28;1989;-46
2022/01/02 08:25:12;;;;;;;;;;;;;;;13.26;58.71;96149.72;5116723;28;1047;-46
2022/01/02 08:27:38;;;;;;;;;;;;;;;13.26;58.21;96148.84;5116208;28;1008;-46
2022/01/02 08:30:05;;;;;;;;;;;;;;;13.29;58.68;96152.06;5116146;28;1051;-46
2022/01/02 08:32:31;;;;;;;;;;;;;;;13.44;58.62;96152.41;5116248;28;984;-47
2022/01/02 08:34:57;;;;;;;;;;;;;;;13.50;58.36;96155.50;5116124;28;1099;-45
2022/01/02 08:37:23;;;;;;;;;;;;;;;13.54;58.34;96156.84;5116158;28;1003;-47
2022/01/02 08:39:49;;;;;;;;;;;;;;;13.42;58.15;96156.25;5116225;28;995;-47
2022/01/02 08:42:16;;;;;;;;;;;;;;;13.38;58.36;96158.41;5115708;28;1909;-46
2022/01/02 08:44:43;;;;;;;;;;;;;;;13.59;58.01;96160.78;5115897;28;1052;-46
2022/01/02 08:47:10;;;;;;;;;;;;;;;13.44;57.77;96157.78;5115662;28;968;-46
2022/01/02 08:49:36;;;;;;;;;;;;;;;13.36;58.33;96155.03;5115887;28;1118;-46
2022/01/02 08:52:02;;;;;;;;;;;;;;;13.36;58.93;96156.88;5115959;27;1022;-46
2022/01/02 08:54:28;;;;;;;;;;;;;;;13.05;60.07;96155.38;5116049;28;975;-46
2022/01/02 08:56:55;;;;;;;;;;;;;;;12.98;60.16;96140.88;5115436;28;1858;-46
2022/01/02 08:59:27;;;;;;;;;;;;;;;12.93;61.02;96145.00;5115568;28;1028;-46
2022/01/02 09:01:54;;;;;;;;;;;;;;;13.01;59.58;96148.63;5115384;28;2036;-46
2022/01/02 09:04:20;;;;;;;;;;;;;;;13.16;59.33;96138.19;5115817;27;1036;-46
2022/01/02 09:06:46;;;;;;;;;;;;;;;13.21;58.17;96129.69;5115259;28;1035;-47
2022/01/02 09:09:12;;;;;;;;;;;;;;;13.46;58.39;96139.66;5115559;28;1883;-46
2022/01/02 09:11:38;;;;;;;;;;;;;;;13.65;57.35;96124.38;5115286;28;1267;-46
2022/01/02 09:14:04;;;;;;;;;;;;;;;14.49;54.66;96120.16;5115071;28;1112;-47
2022/01/02 09:16:31;;;;;;;;;;;;;;;16.36;50.42;96120.50;5115307;28;965;-47
2022/01/02 09:18:57;;;;;;;;;;;;;;;17.47;47.14;96132.13;5115007;28;1164;-47
2022/01/02 09:21:23;;;;;;;;;;;;;;;17.37;47.48;96129.63;5115194;28;1868;-47
2022/01/02 09:23:49;;;;;;;;;;;;;;;18.17;44.76;96127.47;5114944;28;1991;-46
2022/01/02 09:26:16;;;;;;;;;;;;;;;19.33;43.60;96124.22;5115436;28;1074;-47
2022/01/02 09:28:43;;;;;;;;;;;;;;;21.49;39.18;96130.75;5114822;28;1110;-45
2022/01/02 09:31:09;;;;;;;;;;;;;;;25.20;32.70;96129.47;5115229;28;956;-45
2022/01/02 09:33:35;;;;;;;;;;;;;;;26.84;29.68;96122.75;5115183;28;984;-45
2022/01/02 09:36:01;;;;;;;;;;;;;;;27.09;28.92;96108.78;5115099;28;1063;-45
2022/01/02 09:38:27;;;;;;;;;;;;;;;28.22;27.74;96105.44;5114707;28;1047;-46
2022/01/02 09:40:53;;;;;;;;;;;;;;;28.19;27.11;96104.03;5115118;28;1052;-47
2022/01/02 09:43:19;;;;;;;;;;;;;;;27.83;26.68;96102.53;5114552;28;1986;-47
2022/01/02 09:45:46;;;;;;;;;;;;;;;27.87;26.72;96094.63;5114643;28;988;-46
2022/01/02 09:48:12;;;;;;;;;;;;;;;29.37;25.28;96096.66;5114756;28;1043;-46
2022/01/02 09:50:39;;;;;;;;;;;;;;;31.31;22.75;96091.91;5114636;28;1075;-47
2022/01/02 09:53:05;;;;;;;;;;;;;;;32.10;22.01;96094.66;5114448;28;1020;-47
2022/01/02 09:55:32;;;;;;;;;;;;;;;32.54;20.96;96091.34;5114706;28;1080;-47
2022/01/02 09:57:59;;;;;;;;;;;;;;;33.06;20.74;96089.31;5114290;28;1054;-47
2022/01/02 10:00:27;;;;;;;;;;;;;;;33.08;20.94;96090.69;5114511;28;1040;-47
2022/01/02 10:03:11;;;;;;;;;;;;;;;33.63;20.05;96079.69;5114418;28;2000;-47
2022/01/02 10:05:53;;;;;;;;;;;;;;;34.01;19.84;96081.97;5114817;28;977;-47
2022/01/02 10:08:21;;;;;;;;;;;;;;;33.43;19.86;96079.78;5114485;28;984;-48
2022/01/02 10:10:47;;;;;;;;;;;;;;;32.18;21.11;96074.75;5114218;28;1024;-47
2022/01/02 10:13:13;;;;;;;;;;;;;;;31.08;22.06;96073.06;5114264;28;1224;-48
2022/01/02 10:15:39;;;;;;;;;;;;;;;29.11;24.45;96062.44;5114144;28;1315;-47
2022/01/02 10:18:06;;;;;;;;;;;;;;;26.32;27.84;96056.84;5113943;28;1111;-47
2022/01/02 10:20:32;;;;;;;;;;;;;;;23.59;31.79;96045.41;5114156;28;1111;-47
2022/01/02 10:23:10;;;;;;;;;;;;;;;21.26;35.14;96044.03;5113055;28;1910;-45
2022/01/02 10:25:45;;;;;;;;;;;;;;;20.77;35.72;96035.16;5114429;28;960;-46
2022/01/02 10:28:18;;;;;;;;;;;;;;;20.98;35.76;96036.03;5114069;28;984;-46
2022/01/02 10:30:45;;;;;;;;;;;;;;;22.59;33.96;96043.16;5114344;28;996;-46
2022/01/02 10:33:11;;;;;;;;;;;;;;;27.28;27.25;96043.59;5113910;28;1023;-47
2022/01/02 10:35:37;;;;;;;;;;;;;;;30.36;23.50;96054.09;5113911;28;1003;-46
2022/01/02 10:38:04;;;;;;;;;;;;;;;31.66;21.58;96046.19;5113849;28;1019;-47
2022/01/02 10:40:30;;;;;;;;;;;;;;;32.53;20.14;96039.84;5113989;28;1052;-47
2022/01/02 10:42:58;;;;;;;;;;;;;;;32.27;19.82;96039.88;5113829;28;1913;-47
2022/01/02 10:45:30;;;;;;;;;;;;;;;31.86;20.39;96039.03;5113622;28;1067;-47
2022/01/02 10:47:56;;;;;;;;;;;;;;;31.36;21.10;96030.34;5113747;28;1009;-46
2022/01/02 10:50:22;;;;;;;;;;;;;;;31.74;21.56;96035.69;5113876;28;973;-47
2022/01/02 10:52:48;;;;;;;;;;;;;;;32.43;20.55;96028.81;5114007;28;1028;-46
2022/01/02 10:55:14;;;;;;;;;;;;;;;32.25;19.93;96032.97;5113549;28;1019;-46
2022/01/02 10:57:46;;;;;;;;;;;;;;;31.18;20.63;96023.38;5113703;28;1071;-46
2022/01/02 11:00:12;;;;;;;;;;;;;;;29.37;22.94;96022.31;5113851;28;1052;-47
2022/01/02 11:02:39;;;;;;;;;;;;;;;27.19;25.43;96007.41;5113652;28;1982;-46
2022/01/02 11:05:10;;;;;;;;;;;;;;;24.61;29.36;96006.06;5113368;28;1083;-46
2022/01/02 11:07:40;;;;;;;;;;;;;;;22.80;31.64;95996.56;5113629;28;1297;-46
2022/01/02 11:10:07;;;;;;;;;;;;;;;21.34;34.68;95997.63;5113402;28;1083;-45
2022/01/02 11:12:32;;;;;;;;;;;;;;;20.24;35.56;96002.25;5113726;28;1157;-46
2022/01/02 11:14:59;;;;;;;;;;;;;;;19.87;36.05;95988.06;5113189;28;1987;-44
2022/01/02 11:17:26;;;;;;;;;;;;;;;18.85;38.64;95992.78;5113647;28;980;-46
2022/01/02 11:19:52;;;;;;;;;;;;;;;18.59;39.21;95987.03;5113490;28;1031;-45
2022/01/02 11:22:47;;;;;;;;;;;;;;;18.64;39.48;95992.75;5113730;28;1914;-47
2022/01/02 11:25:22;;;;;;;;;;;;;;;18.76;38.89;95985.78;5100328;28;1526;-46
2022/01/02 11:27:54;;;;;;;;;;;;;;;18.62;39.94;95981.25;5113643;28;987;-46
2022/01/02 11:30:32;;;;;;;;;;;;;;;18.63;39.35;95981.06;5113490;28;952;-46
2022/01/02 11:33:03;;;;;;;;;;;;;;;19.09;38.93;95980.72;5113670;28;964;-47
2022/01/02 11:35:32;;;;;;;;;;;;;;;18.87;39.30;95982.59;5117198;28;976;-46
2022/01/02 11:38:02;;;;;;;;;;;;;;;18.00;40.66;95972.56;5117293;28;1020;-46
2022/01/02 11:40:46;;;;;;;;;;;;;;;17.82;41.39;95969.38;5117060;28;1051;-46
2022/01/02 11:43:31;;;;;;;;;;;;;;;17.51;41.80;95978.47;5117380;28;1909;-47
2022/01/02 11:46:16;;;;;;;;;;;;;;;16.98;42.37;95967.66;5116897;28;1008;-46
2022/01/02 11:48:42;;;;;;;;;;;;;;;16.91;42.09;95967.53;5117106;28;1015;-46
2022/01/02 11:51:08;;;;;;;;;;;;;;;16.87;42.30;95960.81;5117085;28;1054;-46
2022/01/02 11:53:35;;;;;;;;;;;;;;;16.55;43.47;95954.56;5117262;28;987;-46
2022/01/02 11:56:02;;;;;;;;;;;;;;;16.43;43.11;95958.72;5116844;28;988;-46
2022/01/02 11:58:46;;;;;;;;;;;;;;;16.29;43.49;95951.34;5117268;28;973;-47
2022/01/02 12:01:31;;;;;;;;;;;;;;;16.56;42.47;95947.31;5116711;28;1087;-47
2022/01/02 12:03:57;;;;;;;;;;;;;;;16.40;44.00;95946.41;5116996;28;1907;-46
2022/01/02 12:06:24;;;;;;;;;;;;;;;16.40;43.38;95956.34;5116813;28;1043;-46
2022/01/02 12:08:54;;;;;;;;;;;;;;;16.43;44.15;95937.13;5116871;28;1047;-45
2022/01/02 12:11:32;;;;;;;;;;;;;;;16.47;44.04;95932.22;5116453;28;1212;-47
2022/01/02 12:14:02;;;;;;;;;;;;;;;16.55;43.24;95938.38;5116232;28;1272;-46
2022/01/02 12:16:35;;;;;;;;;;;;;;;16.44;44.24;95935.25;5116690;28;973;-46
2022/01/02 12:19:03;;;;;;;;;;;;;;;16.26;45.05;95933.69;5116799;28;1003;-46
2022/01/02 12:21:31;;;;;;;;;;;;;;;16.16;45.34;95936.59;5116598;28;1067;-45
2022/01/02 12:23:58;;;;;;;;;;;;;;;16.26;44.91;95932.81;5116623;28;1996;-46
2022/01/02 12:26:28;;;;;;;;;;;;;;;16.18;44.01;95936.41;5116199;27;1191;-46
2022/01/02 12:28:57;;;;;;;;;;;;;;;16.14;43.81;95943.16;5116239;28;1039;-47
2022/01/02 12:31:43;;;;;;;;;;;;;;;16.02;44.41;95929.25;5116385;28;1019;-47
2022/01/02 12:34:11;;;;;;;;;;;;;;;15.96;44.50;95932.66;5116186;28;1149;-46
2022/01/02 12:36:40;;;;;;;;;;;;;;;15.88;45.81;95932.66;5116297;28;1213;-47
2022/01/02 12:39:11;;;;;;;;;;;;;;;15.64;44.71;95938.97;5116249;27;1038;-46
2022/01/02 12:41:38;;;;;;;;;;;;;;;15.34;45.29;95936.84;5116048;28;952;-46
2022/01/02 12:44:07;;;;;;;;;;;;;;;15.19;45.79;95931.31;5116211;28;1985;-47
2022/01/02 12:46:42;;;;;;;;;;;;;;;15.18;45.97;95924.25;5114819;28;1015;-46
2022/01/02 12:49:11;;;;;;;;;;;;;;;15.09;46.33;95921.75;5115917;28;1558;-47
2022/01/02 12:51:38;;;;;;;;;;;;;;;15.11;46.23;95914.34;5115598;28;994;-46
2022/01/02 12:54:06;;;;;;;;;;;;;;;14.99;46.35;95919.25;5116091;28;1020;-47
2022/01/02 12:56:36;;;;;;;;;;;;;;;15.03;47.22;95912.50;5115787;28;1055;-46
2022/01/02 12:59:17;;;;;;;;;;;;;;;15.12;46.68;95908.78;5115629;28;1024;-47
2022/01/02 13:02:03;;;;;;;;;;;;;;;15.08;46.32;95909.28;5115723;28;1011;-47
2022/01/02 13:04:31;;;;;;;;;;;;;;;14.84;46.48;95902.91;5115664;28;1023;-46
2022/01/02 13:06:58;;;;;;;;;;;;;;;14.63;47.92;95901.56;5115421;28;1872;-46
2022/01/02 13:09:26;;;;;;;;;;;;;;;14.61;47.53;95900.91;5115831;28;1003;-47
2022/01/02 13:11:52;;;;;;;;;;;;;;;14.58;48.35;95901.22;5115341;28;1220;-47